createdAt,value
2023-04-08T00:01:20.951Z,13.20
2023-04-08T00:03:14.045Z,13.10
2023-04-08T00:05:08.278Z,13.00
2023-04-08T00:07:01.145Z,13.80
2023-04-08T00:08:54.178Z,12.90
2023-04-08T00:10:47.126Z,13.80
2023-04-08T00:12:39.972Z,14.20
2023-04-08T00:14:32.939Z,14.40
2023-04-08T00:16:25.784Z,13.90
2023-04-08T00:18:18.710Z,12.80
2023-04-08T00:20:11.866Z,13.70
2023-04-08T00:22:04.712Z,13.80
2023-04-08T00:23:57.552Z,13.50
2023-04-08T00:25:51.204Z,13.70
2023-04-08T00:27:44.086Z,14.10
2023-04-08T00:29:36.915Z,13.40
2023-04-08T00:31:29.992Z,14.20
2023-04-08T00:33:25.062Z,13.60
2023-04-08T00:35:17.974Z,13.90
2023-04-08T00:37:10.956Z,13.80
2023-04-08T00:39:07.182Z,15.10
2023-04-08T00:41:00.649Z,15.60
2023-04-08T00:42:53.497Z,14.00
2023-04-08T00:44:46.538Z,15.30
2023-04-08T00:46:40.950Z,14.90
2023-04-08T00:48:34.180Z,15.30
2023-04-08T00:50:26.990Z,15.50
2023-04-08T00:52:19.971Z,15.40
2023-04-08T00:54:12.815Z,14.80
2023-04-08T00:56:05.862Z,15.30
2023-04-08T00:57:59.222Z,15.90
2023-04-08T00:59:52.275Z,14.90
2023-04-08T01:02:06.669Z,14.30
2023-04-08T01:04:13.658Z,15.30
2023-04-08T01:06:20.584Z,15.60
2023-04-08T01:08:16.023Z,14.60
2023-04-08T01:10:16.243Z,15.90
2023-04-08T01:12:12.941Z,15.10
2023-04-08T01:14:10.278Z,15.10
2023-04-08T01:16:04.234Z,15.60
2023-04-08T01:17:59.649Z,15.20
2023-04-08T01:19:55.006Z,15.80
2023-04-08T01:21:48.643Z,15.20
2023-04-08T01:23:53.362Z,15.30
2023-04-08T01:25:57.048Z,15.40
2023-04-08T01:27:50.741Z,15.40
2023-04-08T01:29:44.391Z,15.20
2023-04-08T01:31:39.613Z,15.50
2023-04-08T01:33:33.838Z,15.60
2023-04-08T01:35:27.512Z,15.20
2023-04-08T01:37:21.815Z,15.20
2023-04-08T01:39:17.502Z,15.90
2023-04-08T01:41:11.918Z,15.50
2023-04-08T01:43:09.165Z,16.70
2023-04-08T01:45:06.005Z,15.70
2023-04-08T01:46:59.737Z,16.70
2023-04-08T01:48:54.098Z,17.00
2023-04-08T01:50:47.818Z,16.30
2023-04-08T01:52:43.427Z,16.40
2023-04-08T01:54:36.686Z,17.00
2023-04-08T01:56:33.115Z,16.30
2023-04-08T01:58:31.530Z,18.20
2023-04-08T02:02:24.840Z,18.30
2023-04-08T02:04:18.099Z,18.20
2023-04-08T02:06:11.370Z,16.80
2023-04-08T02:08:04.730Z,18.30
2023-04-08T02:09:57.678Z,18.20
2023-04-08T02:11:50.523Z,17.70
2023-04-08T02:13:43.474Z,16.30
2023-04-08T02:15:38.881Z,17.00
2023-04-08T02:17:52.814Z,17.30
2023-04-08T02:19:57.355Z,17.10
2023-04-08T02:22:02.995Z,16.40
2023-04-08T02:23:57.871Z,18.60
2023-04-08T02:25:55.647Z,18.30
2023-04-08T02:27:53.343Z,16.30
2023-04-08T02:29:49.635Z,17.50
2023-04-08T02:31:43.708Z,16.90
2023-04-08T02:33:38.739Z,18.40
2023-04-08T02:35:32.811Z,17.50
2023-04-08T02:37:26.133Z,17.80
2023-04-08T02:39:19.589Z,17.60
2023-04-08T02:41:14.687Z,19.10
2023-04-08T02:43:07.637Z,19.00
2023-04-08T02:45:00.479Z,18.20
2023-04-08T02:46:53.340Z,18.60
2023-04-08T02:48:46.282Z,18.80
2023-04-08T02:50:40.137Z,17.10
2023-04-08T02:52:33.090Z,18.70
2023-04-08T02:54:26.044Z,19.00
2023-04-08T02:56:19.803Z,18.00
2023-04-08T02:58:12.651Z,18.80
2023-04-08T03:00:06.316Z,17.60
2023-04-08T03:01:59.230Z,18.80
2023-04-08T03:03:52.260Z,17.80
2023-04-08T03:05:45.364Z,18.90
2023-04-08T03:07:38.628Z,17.90
2023-04-08T03:09:31.476Z,18.80
2023-04-08T03:11:24.322Z,19.60
2023-04-08T03:13:17.461Z,17.60
2023-04-08T03:15:10.423Z,18.20
2023-04-08T03:17:03.513Z,19.40
2023-04-08T03:18:56.616Z,19.00
2023-04-08T03:20:49.481Z,18.30
2023-04-08T03:22:42.316Z,18.20
2023-04-08T03:24:35.767Z,19.30
2023-04-08T03:26:29.208Z,20.60
2023-04-08T03:28:22.087Z,21.60
2023-04-08T03:30:15.021Z,21.40
2023-04-08T03:32:07.991Z,28.00
2023-04-08T03:34:00.919Z,68.90
2023-04-08T03:35:54.755Z,38.10
2023-04-08T03:37:47.846Z,27.50
2023-04-08T03:39:40.686Z,23.90
2023-04-08T03:41:33.532Z,23.80
2023-04-08T03:43:26.577Z,22.00
2023-04-08T03:45:19.528Z,22.90
2023-04-08T03:47:12.375Z,24.00
2023-04-08T03:49:05.143Z,26.10
2023-04-08T03:50:58.066Z,36.30
2023-04-08T03:52:51.115Z,42.90
2023-04-08T03:54:43.972Z,47.60
2023-04-08T03:56:36.807Z,46.70
2023-04-08T03:58:29.648Z,43.70
2023-04-08T04:00:22.603Z,30.20
2023-04-08T04:02:15.562Z,27.50
2023-04-08T04:04:09.216Z,24.60
2023-04-08T04:06:02.298Z,24.40
2023-04-08T04:07:55.209Z,24.40
2023-04-08T04:09:48.156Z,25.40
2023-04-08T04:11:41.108Z,24.00
2023-04-08T04:13:34.156Z,27.10
2023-04-08T04:15:27.232Z,25.20
2023-04-08T04:17:20.155Z,29.70
2023-04-08T04:19:13.001Z,27.70
2023-04-08T04:21:07.490Z,35.70
2023-04-08T04:23:00.328Z,27.80
2023-04-08T04:24:53.177Z,28.60
2023-04-08T04:26:46.020Z,30.80
2023-04-08T04:28:39.071Z,27.50
2023-04-08T04:30:31.914Z,29.30
2023-04-08T04:32:24.783Z,27.20
2023-04-08T04:34:17.607Z,25.80
2023-04-08T04:36:10.462Z,26.50
2023-04-08T04:38:03.399Z,24.90
2023-04-08T04:39:56.349Z,25.30
2023-04-08T04:41:49.523Z,24.90
2023-04-08T04:43:42.454Z,25.00
2023-04-08T04:45:35.610Z,25.40
2023-04-08T04:47:28.494Z,27.80
2023-04-08T04:49:21.624Z,24.70
2023-04-08T04:51:14.456Z,23.20
2023-04-08T04:53:07.292Z,22.80
2023-04-08T04:55:00.252Z,22.40
2023-04-08T04:56:53.087Z,22.80
2023-04-08T04:58:45.937Z,23.10
2023-04-08T05:00:38.986Z,22.90
2023-04-08T05:02:32.490Z,23.70
2023-04-08T05:04:26.419Z,22.40
2023-04-08T05:06:19.223Z,22.00
2023-04-08T05:08:12.118Z,22.10
2023-04-08T05:10:06.204Z,21.40
2023-04-08T05:11:59.140Z,22.70
2023-04-08T05:13:51.931Z,23.90
2023-04-08T05:15:47.629Z,24.30
2023-04-08T05:17:40.994Z,25.20
2023-04-08T05:19:33.952Z,24.20
2023-04-08T05:21:27.977Z,23.30
2023-04-08T05:23:20.819Z,24.50
2023-04-08T05:25:13.670Z,24.00
2023-04-08T05:27:06.736Z,24.30
2023-04-08T05:28:59.563Z,23.60
2023-04-08T05:30:53.131Z,24.50
2023-04-08T05:32:46.004Z,24.10
2023-04-08T05:34:38.819Z,24.10
2023-04-08T05:36:32.564Z,23.80
2023-04-08T05:38:25.542Z,24.00
2023-04-08T05:40:18.591Z,25.70
2023-04-08T05:42:12.970Z,24.50
2023-04-08T05:44:05.925Z,23.90
2023-04-08T05:45:58.885Z,25.70
2023-04-08T05:47:51.766Z,24.30
2023-04-08T05:49:44.586Z,25.70
2023-04-08T05:51:37.506Z,25.40
2023-04-08T05:53:30.452Z,25.70
2023-04-08T05:55:23.517Z,25.20
2023-04-08T05:57:17.068Z,25.50
2023-04-08T05:59:09.903Z,24.60
2023-04-08T06:01:02.859Z,24.90
2023-04-08T06:02:56.010Z,24.30
2023-04-08T06:04:49.095Z,25.50
2023-04-08T06:06:42.110Z,25.10
2023-04-08T06:08:34.949Z,24.10
2023-04-08T06:10:27.947Z,25.10
2023-04-08T06:12:21.161Z,25.20
2023-04-08T06:14:14.409Z,24.10
2023-04-08T06:16:12.166Z,26.50
2023-04-08T06:18:05.167Z,23.70
2023-04-08T06:19:58.166Z,25.60
2023-04-08T06:21:51.756Z,26.30
2023-04-08T06:23:44.779Z,25.80
2023-04-08T06:25:37.630Z,25.50
2023-04-08T06:27:30.587Z,24.60
2023-04-08T06:29:24.030Z,25.70
2023-04-08T06:31:16.948Z,26.20
2023-04-08T06:33:10.031Z,26.00
2023-04-08T06:35:02.885Z,26.60
2023-04-08T06:36:56.134Z,25.80
2023-04-08T06:38:49.137Z,26.40
2023-04-08T06:40:42.246Z,26.20
2023-04-08T06:42:35.183Z,27.20
2023-04-08T06:44:34.478Z,26.40
2023-04-08T06:46:27.378Z,26.80
2023-04-08T06:48:21.056Z,26.10
2023-04-08T06:50:13.966Z,25.70
2023-04-08T06:52:07.195Z,27.90
2023-04-08T06:54:00.055Z,27.60
2023-04-08T06:55:53.226Z,26.90
2023-04-08T06:57:46.241Z,27.00
2023-04-08T06:59:39.099Z,26.00
2023-04-08T07:01:32.329Z,26.20
2023-04-08T07:03:25.473Z,25.50
2023-04-08T07:05:18.913Z,25.40
2023-04-08T07:07:12.026Z,25.40
2023-04-08T07:09:04.974Z,23.60
2023-04-08T07:10:57.803Z,25.10
2023-04-08T07:12:52.703Z,26.30
2023-04-08T07:14:45.456Z,24.80
2023-04-08T07:16:38.414Z,27.00
2023-04-08T07:18:32.061Z,25.60
2023-04-08T07:20:24.940Z,25.60
2023-04-08T07:22:18.675Z,25.30
2023-04-08T07:24:11.614Z,24.70
2023-04-08T07:26:07.427Z,25.00
2023-04-08T07:28:00.439Z,26.40
2023-04-08T07:29:54.659Z,26.00
2023-04-08T07:31:47.709Z,26.20
2023-04-08T07:33:40.759Z,27.40
2023-04-08T07:35:34.297Z,25.20
2023-04-08T07:37:28.087Z,25.70
2023-04-08T07:39:21.445Z,25.30
2023-04-08T07:41:14.393Z,25.00
2023-04-08T07:43:07.344Z,25.70
2023-04-08T07:45:00.400Z,26.30
2023-04-08T07:46:53.266Z,24.50
2023-04-08T07:48:46.187Z,25.60
2023-04-08T07:51:08.866Z,24.90
2023-04-08T07:52:53.431Z,24.30
2023-04-08T07:54:46.242Z,25.70
2023-04-08T07:56:40.638Z,25.60
2023-04-08T07:58:33.760Z,24.90
2023-04-08T08:00:27.429Z,25.90
2023-04-08T08:02:20.548Z,26.20
2023-04-08T08:04:13.973Z,24.30
2023-04-08T08:06:07.683Z,25.70
2023-04-08T08:08:00.548Z,26.40
2023-04-08T08:09:53.500Z,24.20
2023-04-08T08:11:46.452Z,24.30
2023-04-08T08:13:39.394Z,25.40
2023-04-08T08:15:32.857Z,24.80
2023-04-08T08:17:27.714Z,23.30
2023-04-08T08:19:21.477Z,24.90
2023-04-08T08:21:14.773Z,24.30
2023-04-08T08:23:07.720Z,24.50
2023-04-08T08:25:00.672Z,24.40
2023-04-08T08:26:53.515Z,24.90
2023-04-08T08:28:46.360Z,24.80
2023-04-08T08:30:39.205Z,23.30
2023-04-08T08:32:32.999Z,23.90
2023-04-08T08:34:25.829Z,22.80
2023-04-08T08:36:18.784Z,24.00
2023-04-08T08:38:12.843Z,24.10
2023-04-08T08:40:06.716Z,23.40
2023-04-08T08:42:00.895Z,23.90
2023-04-08T08:43:54.758Z,24.50
2023-04-08T08:45:48.217Z,23.50
2023-04-08T08:47:41.175Z,24.10
2023-04-08T08:49:34.012Z,26.10
2023-04-08T08:51:28.072Z,25.90
2023-04-08T08:53:23.398Z,30.20
2023-04-08T08:55:39.567Z,27.10
2023-04-08T08:57:34.483Z,27.20
2023-04-08T08:59:27.371Z,30.10
2023-04-08T09:01:38.697Z,25.70
2023-04-08T09:05:25.276Z,25.70
2023-04-08T09:07:18.471Z,25.50
2023-04-08T09:09:11.657Z,26.10
2023-04-08T09:11:11.818Z,27.90
2023-04-08T09:13:04.687Z,25.80
2023-04-08T09:15:09.006Z,26.50
2023-04-08T09:17:02.590Z,28.10
2023-04-08T09:18:55.951Z,27.70
2023-04-08T09:20:53.477Z,26.20
2023-04-08T09:23:01.178Z,27.00
2023-04-08T09:24:54.126Z,27.60
2023-04-08T09:26:48.091Z,27.40
2023-04-08T09:28:42.165Z,27.00
2023-04-08T09:30:35.230Z,26.90
2023-04-08T09:32:51.436Z,26.70
2023-04-08T09:34:44.978Z,27.10
2023-04-08T09:36:38.945Z,27.00
2023-04-08T09:38:31.895Z,25.40
2023-04-08T09:40:26.482Z,26.10
2023-04-08T09:42:21.435Z,27.20
2023-04-08T09:44:17.003Z,26.10
2023-04-08T09:46:12.889Z,28.00
2023-04-08T09:48:24.314Z,26.90
2023-04-08T09:50:20.507Z,28.10
2023-04-08T09:52:21.239Z,26.70
2023-04-08T09:54:18.181Z,27.60
2023-04-08T09:56:14.049Z,27.00
2023-04-08T09:58:16.872Z,26.30
2023-04-08T10:00:13.367Z,28.10
2023-04-08T10:02:13.431Z,26.60
2023-04-08T10:04:12.459Z,25.00
2023-04-08T10:06:08.333Z,24.50
2023-04-08T10:08:01.180Z,24.50
2023-04-08T10:09:54.329Z,24.40
2023-04-08T10:11:48.202Z,25.70
2023-04-08T10:13:41.563Z,26.10
2023-04-08T10:15:36.227Z,24.30
2023-04-08T10:17:30.379Z,24.20
2023-04-08T10:19:43.235Z,23.80
2023-04-08T10:21:50.318Z,22.20
2023-04-08T10:23:55.914Z,22.30
2023-04-08T10:25:49.420Z,23.30
2023-04-08T10:27:44.022Z,24.00
2023-04-08T10:29:36.957Z,31.00
2023-04-08T10:31:30.175Z,27.70
2023-04-08T10:33:25.523Z,25.00
2023-04-08T10:35:18.728Z,27.60
2023-04-08T10:37:11.822Z,32.50
2023-04-08T10:39:05.077Z,33.20
2023-04-08T10:40:58.648Z,25.20
2023-04-08T10:42:56.194Z,21.40
2023-04-08T10:44:49.039Z,21.50
2023-04-08T10:46:41.915Z,21.20
2023-04-08T10:48:34.831Z,23.30
2023-04-08T10:50:28.415Z,21.60
2023-04-08T10:52:23.594Z,21.00
2023-04-08T10:54:18.013Z,19.70
2023-04-08T10:56:13.593Z,20.80
2023-04-08T10:58:11.251Z,19.40
2023-04-08T11:00:05.907Z,18.10
2023-04-08T11:02:00.661Z,19.90
2023-04-08T11:03:53.971Z,18.60
2023-04-08T11:05:47.133Z,18.70
2023-04-08T11:07:41.929Z,18.30
2023-04-08T11:09:34.978Z,17.80
2023-04-08T11:11:29.681Z,17.90
2023-04-08T11:13:24.052Z,18.90
2023-04-08T11:15:17.740Z,19.10
2023-04-08T11:17:11.177Z,18.20
2023-04-08T11:19:05.670Z,19.40
2023-04-08T11:21:00.182Z,19.70
2023-04-08T11:22:53.403Z,20.80
2023-04-08T11:24:46.556Z,19.30
2023-04-08T11:26:40.953Z,20.30
2023-04-08T11:28:35.722Z,19.70
2023-04-08T11:30:30.114Z,19.90
2023-04-08T11:32:23.814Z,19.40
2023-04-08T11:34:24.293Z,20.00
2023-04-08T11:36:21.874Z,19.00
2023-04-08T11:38:14.800Z,18.60
2023-04-08T11:40:12.159Z,18.40
2023-04-08T11:42:05.100Z,19.80
2023-04-08T11:43:58.062Z,20.50
2023-04-08T11:45:51.153Z,19.50
2023-04-08T11:47:44.779Z,19.30
2023-04-08T11:49:44.763Z,19.10
2023-04-08T11:51:56.447Z,17.80
2023-04-08T11:53:50.022Z,19.20
2023-04-08T11:55:43.645Z,19.00
2023-04-08T11:57:37.766Z,19.20
2023-04-08T11:59:30.923Z,19.00
2023-04-08T12:01:23.777Z,19.40
2023-04-08T12:03:16.681Z,18.50
2023-04-08T12:05:09.690Z,19.80
2023-04-08T12:07:02.922Z,19.40
2023-04-08T12:08:57.059Z,19.10
2023-04-08T12:10:49.939Z,20.00
2023-04-08T12:12:42.997Z,18.80
2023-04-08T12:14:35.839Z,18.40
2023-04-08T12:16:28.754Z,19.80
2023-04-08T12:18:22.062Z,20.90
2023-04-08T12:20:17.291Z,20.40
2023-04-08T12:22:10.503Z,19.20
2023-04-08T12:24:03.445Z,18.30
2023-04-08T12:25:56.699Z,19.20
2023-04-08T12:27:49.548Z,18.80
2023-04-08T12:29:43.632Z,19.40
2023-04-08T12:31:36.656Z,29.30
2023-04-08T12:33:29.723Z,28.50
2023-04-08T12:35:22.569Z,23.50
2023-04-08T12:37:15.324Z,21.40
2023-04-08T12:39:08.419Z,20.90
2023-04-08T12:41:01.639Z,20.30
2023-04-08T12:42:54.473Z,20.30
2023-04-08T12:44:47.315Z,20.00
2023-04-08T12:46:40.209Z,19.80
2023-04-08T12:48:33.420Z,21.30
2023-04-08T12:50:26.465Z,19.10
2023-04-08T12:52:19.828Z,18.80
2023-04-08T12:54:13.180Z,18.40
2023-04-08T12:56:06.666Z,18.70
2023-04-08T12:57:59.688Z,18.80
2023-04-08T12:59:52.547Z,18.40
2023-04-08T13:01:45.522Z,18.60
2023-04-08T13:03:38.811Z,18.70
2023-04-08T13:05:42.790Z,17.50
2023-04-08T13:07:37.032Z,17.40
2023-04-08T13:09:30.927Z,18.50
2023-04-08T13:11:24.058Z,18.30
2023-04-08T13:13:17.017Z,17.10
2023-04-08T13:15:10.772Z,20.30
2023-04-08T13:17:04.021Z,20.00
2023-04-08T13:18:57.308Z,19.20
2023-04-08T13:20:50.436Z,18.70
2023-04-08T13:22:43.717Z,18.10
2023-04-08T13:24:36.743Z,18.70
2023-04-08T13:26:29.622Z,19.00
2023-04-08T13:28:23.281Z,18.20
2023-04-08T13:30:16.969Z,18.80
2023-04-08T13:32:12.075Z,18.50
2023-04-08T13:34:06.619Z,18.50
2023-04-08T13:36:08.024Z,17.60
2023-04-08T13:38:01.337Z,17.40
2023-04-08T13:39:54.466Z,17.50
2023-04-08T13:41:49.852Z,18.10
2023-04-08T13:43:43.625Z,18.10
2023-04-08T13:45:48.577Z,17.80
2023-04-08T13:47:42.944Z,17.70
2023-04-08T13:49:36.049Z,17.40
2023-04-08T13:51:29.452Z,16.90
2023-04-08T13:53:22.533Z,25.60
2023-04-08T13:55:16.267Z,19.40
2023-04-08T13:57:09.107Z,21.10
2023-04-08T13:59:02.458Z,17.90
2023-04-08T14:00:56.587Z,18.10
2023-04-08T14:02:51.040Z,19.20
2023-04-08T14:04:46.080Z,19.40
2023-04-08T14:06:39.066Z,19.20
2023-04-08T14:08:32.013Z,21.10
2023-04-08T14:10:25.247Z,22.80
2023-04-08T14:12:19.189Z,20.70
2023-04-08T14:14:12.526Z,19.40
2023-04-08T14:16:05.649Z,18.30
2023-04-08T14:17:58.535Z,17.70
2023-04-08T14:19:52.346Z,18.70
2023-04-08T14:21:46.139Z,17.70
2023-04-08T14:23:38.982Z,18.60
2023-04-08T14:25:32.655Z,19.00
2023-04-08T14:27:25.505Z,19.20
2023-04-08T14:29:18.334Z,21.90
2023-04-08T14:31:12.663Z,24.70
2023-04-08T14:33:06.398Z,20.30
2023-04-08T14:34:59.298Z,19.40
2023-04-08T14:36:52.177Z,19.50
2023-04-08T14:38:45.225Z,19.20
2023-04-08T14:40:38.178Z,20.70
2023-04-08T14:42:31.027Z,18.00
2023-04-08T14:44:24.379Z,18.10
2023-04-08T14:46:17.361Z,16.80
2023-04-08T14:48:10.792Z,17.60
2023-04-08T14:50:03.754Z,15.80
2023-04-08T14:51:56.966Z,15.80
2023-04-08T14:53:50.142Z,16.80
2023-04-08T14:55:42.998Z,17.10
2023-04-08T14:57:36.012Z,16.00
2023-04-08T14:59:29.192Z,16.30
2023-04-08T15:01:22.043Z,17.00
2023-04-08T15:03:16.583Z,16.90
2023-04-08T15:05:21.256Z,16.60
2023-04-08T15:07:14.774Z,16.00
2023-04-08T15:09:07.717Z,17.20
2023-04-08T15:11:01.323Z,21.20
2023-04-08T15:12:54.167Z,18.10
2023-04-08T15:14:47.011Z,17.20
2023-04-08T15:16:40.084Z,17.10
2023-04-08T15:18:33.015Z,17.10
2023-04-08T15:20:25.962Z,26.30
2023-04-08T15:22:18.842Z,25.70
2023-04-08T15:24:11.752Z,18.10
2023-04-08T15:26:04.701Z,23.40
2023-04-08T15:27:57.547Z,22.20
2023-04-08T15:29:50.496Z,23.80
2023-04-08T15:31:43.573Z,25.60
2023-04-08T15:33:41.409Z,25.70
2023-04-08T15:35:34.372Z,20.70
2023-04-08T15:37:28.018Z,17.50
2023-04-08T15:39:20.967Z,16.90
2023-04-08T15:41:22.223Z,22.20
2023-04-08T15:43:15.060Z,24.20
2023-04-08T15:45:09.236Z,22.70
2023-04-08T15:47:02.904Z,24.60
2023-04-08T15:48:55.952Z,25.70
2023-04-08T15:50:48.944Z,21.40
2023-04-08T15:52:42.048Z,19.10
2023-04-08T15:54:34.997Z,18.00
2023-04-08T15:56:29.768Z,19.10
2023-04-08T15:58:22.643Z,21.80
2023-04-08T16:00:16.752Z,26.00
2023-04-08T16:02:11.202Z,21.80
2023-04-08T16:04:04.603Z,19.10
2023-04-08T16:05:57.604Z,17.50
2023-04-08T16:07:50.449Z,16.30
2023-04-08T16:09:43.627Z,15.20
2023-04-08T16:11:36.757Z,14.80
2023-04-08T16:13:30.963Z,14.00
2023-04-08T16:15:23.875Z,15.60
2023-04-08T16:17:17.028Z,15.80
2023-04-08T16:19:10.185Z,18.20
2023-04-08T16:21:06.121Z,14.00
2023-04-08T16:22:59.442Z,13.90
2023-04-08T16:24:53.357Z,14.80
2023-04-08T16:26:46.378Z,15.20
2023-04-08T16:28:40.134Z,15.40
2023-04-08T16:30:33.353Z,14.20
2023-04-08T16:32:26.484Z,14.50
2023-04-08T16:34:19.378Z,15.10
2023-04-08T16:36:12.990Z,14.50
2023-04-08T16:38:06.562Z,15.00
2023-04-08T16:39:59.370Z,14.60
2023-04-08T16:41:52.837Z,15.40
2023-04-08T16:43:45.688Z,19.70
2023-04-08T16:45:39.188Z,36.30
2023-04-08T16:47:32.278Z,26.70
2023-04-08T16:49:25.452Z,29.20
2023-04-08T16:51:18.892Z,26.30
2023-04-08T16:53:11.852Z,49.30
2023-04-08T16:55:05.211Z,64.40
2023-04-08T16:56:58.258Z,54.40
2023-04-08T16:58:52.750Z,39.90
2023-04-08T17:00:47.202Z,34.30
2023-04-08T17:02:43.414Z,29.00
2023-04-08T17:04:37.649Z,25.10
2023-04-08T17:06:31.401Z,25.80
2023-04-08T17:08:24.448Z,24.10
2023-04-08T17:10:17.512Z,21.60
2023-04-08T17:12:10.553Z,21.60
2023-04-08T17:14:03.603Z,20.20
2023-04-08T17:15:56.398Z,23.00
2023-04-08T17:17:49.532Z,25.10
2023-04-08T17:19:43.164Z,28.30
2023-04-08T17:21:36.115Z,32.70
2023-04-08T17:23:29.610Z,42.90
2023-04-08T17:25:22.620Z,51.20
2023-04-08T17:27:15.778Z,56.90
2023-04-08T17:29:08.937Z,56.50
2023-04-08T17:31:02.608Z,59.20
2023-04-08T17:32:55.704Z,62.40
2023-04-08T17:34:48.699Z,63.90
2023-04-08T17:36:42.053Z,64.10
2023-04-08T17:38:39.888Z,71.30
2023-04-08T17:40:33.274Z,66.50
2023-04-08T17:42:26.531Z,66.90
2023-04-08T17:44:19.623Z,62.80
2023-04-08T17:46:12.784Z,63.90
2023-04-08T17:48:09.271Z,59.30
2023-04-08T17:50:02.628Z,56.90
2023-04-08T17:51:56.698Z,55.50
2023-04-08T17:53:50.258Z,58.50
2023-04-08T17:55:43.415Z,62.90
2023-04-08T17:57:36.371Z,63.80
2023-04-08T17:59:29.424Z,66.60
2023-04-08T18:01:22.806Z,68.30
2023-04-08T18:03:16.755Z,67.30
2023-04-08T18:05:11.644Z,72.10
2023-04-08T18:07:05.410Z,75.00
2023-04-08T18:08:58.661Z,73.70
2023-04-08T18:10:52.018Z,80.90
2023-04-08T18:12:45.071Z,84.10
2023-04-08T18:14:38.320Z,87.10
2023-04-08T18:16:31.309Z,87.10
2023-04-08T18:18:25.252Z,81.10
2023-04-08T18:20:19.321Z,79.70
2023-04-08T18:22:14.006Z,82.50
2023-04-08T18:24:08.762Z,85.50
2023-04-08T18:26:02.566Z,83.70
2023-04-08T18:27:55.617Z,85.00
2023-04-08T18:29:48.949Z,83.50
2023-04-08T18:31:42.635Z,72.30
2023-04-08T18:33:36.504Z,68.90
2023-04-08T18:35:29.829Z,70.00
2023-04-08T18:37:23.127Z,72.90
2023-04-08T18:39:16.374Z,74.80
2023-04-08T18:41:09.631Z,75.10
2023-04-08T18:43:05.032Z,73.80
2023-04-08T18:44:58.189Z,75.90
2023-04-08T18:46:51.445Z,72.00
2023-04-08T18:48:44.907Z,76.60
2023-04-08T18:50:38.571Z,82.20
2023-04-08T18:52:32.348Z,76.20
2023-04-08T18:54:27.231Z,75.00
2023-04-08T18:56:22.170Z,76.20
2023-04-08T18:58:16.302Z,75.00
2023-04-08T19:00:09.661Z,72.00
2023-04-08T19:02:02.796Z,69.80
2023-04-08T19:03:56.655Z,72.30
2023-04-08T19:05:50.446Z,69.90
2023-04-08T19:07:43.518Z,84.80
2023-04-08T19:09:36.854Z,85.30
2023-04-08T19:11:30.882Z,86.80
2023-04-08T19:13:24.906Z,87.50
2023-04-08T19:15:18.161Z,85.90
2023-04-08T19:17:11.204Z,87.20
2023-04-08T19:19:04.564Z,88.70
2023-04-08T19:20:57.923Z,93.10
2023-04-08T19:22:56.101Z,95.10
2023-04-08T19:24:49.190Z,106.50
2023-04-08T19:26:42.439Z,111.90
2023-04-08T19:28:35.587Z,116.00
2023-04-08T19:30:28.541Z,103.90
2023-04-08T19:32:21.875Z,96.70
2023-04-08T19:34:15.460Z,91.30
2023-04-08T19:36:09.169Z,87.30
2023-04-08T19:38:03.428Z,80.70
2023-04-08T19:39:57.069Z,77.20
2023-04-08T19:41:50.735Z,72.60
2023-04-08T19:43:43.781Z,71.90
2023-04-08T19:45:36.759Z,74.60
2023-04-08T19:47:29.944Z,76.40
2023-04-08T19:49:25.911Z,77.60
2023-04-08T19:51:22.522Z,82.80
2023-04-08T19:53:16.102Z,84.80
2023-04-08T19:55:10.451Z,93.70
2023-04-08T19:57:03.542Z,93.00
2023-04-08T19:58:56.481Z,102.80
2023-04-08T20:00:49.452Z,113.80
2023-04-08T20:02:42.581Z,114.80
2023-04-08T20:04:35.968Z,106.70
2023-04-08T20:06:29.706Z,103.30
2023-04-08T20:08:22.657Z,99.60
2023-04-08T20:10:15.808Z,96.30
2023-04-08T20:12:09.270Z,89.20
2023-04-08T20:14:03.764Z,84.50
2023-04-08T20:15:57.036Z,87.30
2023-04-08T20:17:49.960Z,88.00
2023-04-08T20:19:43.012Z,87.00
2023-04-08T20:21:35.960Z,87.30
2023-04-08T20:23:28.963Z,83.40
2023-04-08T20:25:22.744Z,82.60
2023-04-08T20:27:16.852Z,82.30
2023-04-08T20:29:10.040Z,80.40
2023-04-08T20:31:03.057Z,79.00
2023-04-08T20:32:56.252Z,75.40
2023-04-08T20:34:50.180Z,70.50
2023-04-08T20:36:43.761Z,67.70
2023-04-08T20:38:38.026Z,65.20
2023-04-08T20:40:31.483Z,65.50
2023-04-08T20:42:26.570Z,64.70
2023-04-08T20:44:21.278Z,62.20
2023-04-08T20:46:14.458Z,59.90
2023-04-08T20:48:07.590Z,61.10
2023-04-08T20:50:00.837Z,63.90
2023-04-08T20:51:53.906Z,83.90
2023-04-08T20:53:46.843Z,103.00
2023-04-08T20:55:39.881Z,111.10
2023-04-08T20:57:32.874Z,100.30
2023-04-08T20:59:26.086Z,86.20
2023-04-08T21:01:19.187Z,75.50
2023-04-08T21:03:13.239Z,74.30
2023-04-08T21:05:06.370Z,77.60
2023-04-08T21:06:59.521Z,76.20
2023-04-08T21:08:52.618Z,69.10
2023-04-08T21:10:45.822Z,62.90
2023-04-08T21:12:39.003Z,59.00
2023-04-08T21:14:32.198Z,55.70
2023-04-08T21:16:25.314Z,54.80
2023-04-08T21:18:18.229Z,58.40
2023-04-08T21:20:11.953Z,59.90
2023-04-08T21:22:04.945Z,56.90
2023-04-08T21:23:58.096Z,56.50
2023-04-08T21:25:51.041Z,51.70
2023-04-08T21:27:43.992Z,52.70
2023-04-08T21:29:36.939Z,47.90
2023-04-08T21:31:30.613Z,46.80
2023-04-08T21:33:23.661Z,47.30
2023-04-08T21:35:16.707Z,47.50
2023-04-08T21:37:09.657Z,47.10
2023-04-08T21:39:03.032Z,43.30
2023-04-08T21:40:56.266Z,42.80
2023-04-08T21:42:49.230Z,41.20
2023-04-08T21:44:42.160Z,37.80
2023-04-08T21:46:35.070Z,39.60
2023-04-08T21:48:28.058Z,40.00
2023-04-08T21:50:21.006Z,41.50
2023-04-08T21:52:14.056Z,42.00
2023-04-08T21:54:07.728Z,43.30
2023-04-08T21:56:01.086Z,45.80
2023-04-08T21:57:54.034Z,45.70
2023-04-08T21:59:46.981Z,45.10
2023-04-08T22:01:40.789Z,48.40
2023-04-08T22:03:34.647Z,52.60
2023-04-08T22:05:27.970Z,52.00
2023-04-08T22:07:20.921Z,56.00
2023-04-08T22:09:13.971Z,56.70
2023-04-08T22:11:08.949Z,57.90
2023-04-08T22:13:02.065Z,56.50
2023-04-08T22:14:55.171Z,52.80
2023-04-08T22:16:48.177Z,52.30
2023-04-08T22:18:41.478Z,48.40
2023-04-08T22:20:34.526Z,46.10
2023-04-08T22:22:27.577Z,44.60
2023-04-08T22:24:20.729Z,44.40
2023-04-08T22:26:15.171Z,45.40
2023-04-08T22:28:08.700Z,45.10
2023-04-08T22:30:01.662Z,46.60
2023-04-08T22:31:54.677Z,45.70
2023-04-08T22:33:47.620Z,44.00
2023-04-08T22:35:40.795Z,43.30
2023-04-08T22:37:33.826Z,44.20
2023-04-08T22:39:27.798Z,48.60
2023-04-08T22:41:22.502Z,49.10
2023-04-08T22:43:15.639Z,42.80
2023-04-08T22:45:09.009Z,42.60
2023-04-08T22:47:01.982Z,38.10
2023-04-08T22:48:54.998Z,36.00
2023-04-08T22:50:48.154Z,37.80
2023-04-08T22:52:41.518Z,35.30
2023-04-08T22:54:34.761Z,34.40
2023-04-08T22:56:29.049Z,31.70
2023-04-08T23:04:38.141Z,31.80
2023-04-08T23:06:32.896Z,30.70
2023-04-08T23:08:26.255Z,30.50
2023-04-08T23:10:19.209Z,37.80
2023-04-08T23:12:12.158Z,36.70
2023-04-08T23:14:05.100Z,38.70
2023-04-08T23:15:59.854Z,37.90
2023-04-08T23:17:52.896Z,36.90
2023-04-08T23:19:46.095Z,33.70
2023-04-08T23:21:39.145Z,31.80
2023-04-08T23:23:32.110Z,32.30
2023-04-08T23:25:25.188Z,31.30
2023-04-08T23:27:18.090Z,31.70
2023-04-08T23:29:11.043Z,32.50
2023-04-08T23:31:05.163Z,32.10
2023-04-08T23:32:58.099Z,33.40
2023-04-08T23:34:51.072Z,33.20
2023-04-08T23:36:44.081Z,32.30
2023-04-08T23:38:37.391Z,33.10
2023-04-08T23:40:30.576Z,32.80
2023-04-08T23:42:27.472Z,32.10
2023-04-08T23:44:20.567Z,31.90
2023-04-08T23:46:13.607Z,31.30
2023-04-08T23:48:07.791Z,31.10
2023-04-08T23:50:02.694Z,31.90
2023-04-08T23:51:55.842Z,32.10
2023-04-08T23:53:48.892Z,31.70
2023-04-08T23:55:41.786Z,31.90
2023-04-08T23:57:34.790Z,33.60
2023-04-08T23:59:30.920Z,33.80
